Time;durP1;ratioP1;P1;durP2;ratioP2;P2;SDS_P1;SDS_P2;PMS_P1;PMS_P2;Temp;Humidity;BMP_temperature;BMP_pressure;BME280_temperature;BME280_humidity;BME280_pressure;Samples;Min_cycle;Max_cycle;Signal;HPM_P1;HPM_P2
2022/11/17 00:02:40;;;;;;;15.85;13.65;;;;;;;;;;10030477;28;20053;-63
2022/11/17 00:07:33;;;;;;;17.48;14.52;;;;;;;;;;10035773;28;20081;-63
2022/11/17 00:17:41;;;;;;;16.60;14.48;;;;;;;;;;10053577;28;20096;-64
2022/11/17 00:22:35;;;;;;;17.23;13.85;;;;;;;;;;10046227;28;20410;-63
2022/11/17 00:27:29;;;;;;;16.15;14.05;;;;;;;;;;10043696;28;20049;-63
2022/11/17 00:37:37;;;;;;;16.30;12.57;;;;;;;;;;10036715;28;20049;-63
2022/11/17 00:42:30;;;;;;;15.52;13.18;;;;;;;;;;10034345;28;20057;-63
2022/11/17 00:47:24;;;;;;;16.73;12.90;;;;;;;;;;10036695;28;20073;-63
2022/11/17 00:52:18;;;;;;;16.25;13.30;;;;;;;;;;10041478;28;20058;-63
2022/11/17 00:57:12;;;;;;;19.63;13.65;;;;;;;;;;10033136;28;20049;-63
2022/11/17 01:02:07;;;;;;;17.23;13.45;;;;;;;;;;10040169;28;20049;-63
2022/11/17 01:07:01;;;;;;;17.13;13.02;;;;;;;;;;10030045;28;20141;-63
2022/11/17 01:11:55;;;;;;;15.73;12.75;;;;;;;;;;10031518;28;20407;-63
2022/11/17 01:16:49;;;;;;;14.70;12.77;;;;;;;;;;10034801;28;20060;-63
2022/11/17 01:21:44;;;;;;;17.92;14.57;;;;;;;;;;10036419;28;20128;-63
2022/11/17 01:26:39;;;;;;;15.10;12.63;;;;;;;;;;10031352;28;20097;-63
2022/11/17 01:31:38;;;;;;;17.33;13.52;;;;;;;;;;10032552;28;20064;-63
2022/11/17 01:41:49;;;;;;;20.40;15.25;;;;;;;;;;10031300;28;20057;-63
2022/11/17 01:46:43;;;;;;;19.27;13.98;;;;;;;;;;10031929;28;20129;-63
2022/11/17 01:51:40;;;;;;;16.38;11.68;;;;;;;;;;10029994;28;20058;-63
2022/11/17 01:56:39;;;;;;;16.58;12.70;;;;;;;;;;10033779;28;20057;-64
2022/11/17 02:01:32;;;;;;;17.33;11.32;;;;;;;;;;10034166;28;20496;-63
2022/11/17 02:06:30;;;;;;;15.70;10.95;;;;;;;;;;10036766;28;20046;-63
2022/11/17 02:11:24;;;;;;;15.90;12.35;;;;;;;;;;10034550;28;20057;-63
2022/11/17 02:16:17;;;;;;;15.02;12.80;;;;;;;;;;10031885;28;20046;-64
2022/11/17 02:21:32;;;;;;;18.27;12.30;;;;;;;;;;10033754;28;20435;-63
2022/11/17 02:27:02;;;;;;;13.32;10.57;;;;;;;;;;10029334;28;20056;-63
2022/11/17 02:32:21;;;;;;;13.95;10.80;;;;;;;;;;10028079;28;20141;-63
2022/11/17 02:37:17;;;;;;;13.38;11.30;;;;;;;;;;10028156;28;20061;-63
2022/11/17 02:42:18;;;;;;;15.10;11.52;;;;;;;;;;10034382;28;20041;-62
2022/11/17 02:47:16;;;;;;;18.17;12.45;;;;;;;;;;10029744;28;20141;-63
2022/11/17 02:52:09;;;;;;;17.02;13.05;;;;;;;;;;10033179;28;20054;-63
2022/11/17 02:57:04;;;;;;;14.48;12.10;;;;;;;;;;10028406;28;20056;-63
2022/11/17 03:02:40;;;;;;;18.35;13.88;;;;;;;;;;10028167;28;20037;-63
2022/11/17 03:07:57;;;;;;;13.38;10.95;;;;;;;;;;10027962;28;20512;-63
2022/11/17 03:12:59;;;;;;;13.27;11.68;;;;;;;;;;10031995;28;20050;-62
2022/11/17 03:18:25;;;;;;;13.75;10.48;;;;;;;;;;10034707;28;20128;-63
2022/11/17 03:23:23;;;;;;;12.68;10.98;;;;;;;;;;10009696;28;20073;-63
2022/11/17 03:28:18;;;;;;;11.30;9.70;;;;;;;;;;10034448;28;20362;-63
2022/11/17 03:33:21;;;;;;;13.77;10.40;;;;;;;;;;10029791;28;20336;-64
2022/11/17 03:38:15;;;;;;;12.00;9.98;;;;;;;;;;10029750;28;20568;-64
2022/11/17 03:43:11;;;;;;;13.23;10.40;;;;;;;;;;10027968;28;20058;-63
2022/11/17 03:48:20;;;;;;;12.60;9.68;;;;;;;;;;10026855;28;20504;-63
2022/11/17 03:53:15;;;;;;;13.85;10.70;;;;;;;;;;10018559;28;20141;-63
2022/11/17 03:58:22;;;;;;;14.40;10.10;;;;;;;;;;10036687;28;20049;-64
2022/11/17 04:03:15;;;;;;;12.32;10.38;;;;;;;;;;10033048;28;20068;-63
2022/11/17 04:08:09;;;;;;;14.50;9.30;;;;;;;;;;10026514;28;20405;-64
2022/11/17 04:18:15;;;;;;;11.55;10.10;;;;;;;;;;10026763;28;20054;-64
2022/11/17 04:23:12;;;;;;;17.48;11.60;;;;;;;;;;10029391;28;20088;-63
2022/11/17 04:33:19;;;;;;;13.85;10.65;;;;;;;;;;10029712;28;20104;-63
2022/11/17 04:38:14;;;;;;;13.07;10.73;;;;;;;;;;10031106;28;20054;-64
2022/11/17 04:43:07;;;;;;;15.98;10.48;;;;;;;;;;10035157;28;20488;-64
2022/11/17 04:48:01;;;;;;;16.33;10.93;;;;;;;;;;10030782;28;20050;-63
2022/11/17 04:52:55;;;;;;;14.15;11.30;;;;;;;;;;10034052;28;20133;-63
2022/11/17 04:57:49;;;;;;;12.40;10.40;;;;;;;;;;10032701;28;20045;-63
2022/11/17 05:02:43;;;;;;;13.68;10.15;;;;;;;;;;10042333;28;20049;-63
2022/11/17 05:07:38;;;;;;;12.45;10.13;;;;;;;;;;10051089;28;20085;-63
2022/11/17 05:17:43;;;;;;;13.13;10.10;;;;;;;;;;10029333;28;20551;-62
2022/11/17 05:27:56;;;;;;;16.65;12.30;;;;;;;;;;10037458;28;20050;-63
2022/11/17 05:32:49;;;;;;;20.05;14.13;;;;;;;;;;10031759;28;20133;-63
2022/11/17 05:37:43;;;;;;;22.80;17.08;;;;;;;;;;10032193;28;20132;-63
2022/11/17 05:42:37;;;;;;;27.80;16.42;;;;;;;;;;10034561;28;20500;-63
2022/11/17 05:47:31;;;;;;;24.08;17.58;;;;;;;;;;10037466;28;20130;-63
2022/11/17 05:52:25;;;;;;;26.25;18.85;;;;;;;;;;10037115;28;20054;-63
2022/11/17 05:57:26;;;;;;;26.35;19.10;;;;;;;;;;10038806;28;20448;-63
2022/11/17 06:02:25;;;;;;;26.33;19.05;;;;;;;;;;10053314;28;20528;-63
2022/11/17 06:07:19;;;;;;;23.50;18.35;;;;;;;;;;10029141;28;20050;-63
2022/11/17 06:12:18;;;;;;;27.63;19.55;;;;;;;;;;10029395;28;20472;-63
2022/11/17 06:17:23;;;;;;;18.02;14.32;;;;;;;;;;10030307;28;20088;-63
2022/11/17 06:22:17;;;;;;;16.38;12.75;;;;;;;;;;10033380;28;20476;-63
2022/11/17 06:27:13;;;;;;;24.88;13.02;;;;;;;;;;10032492;28;20056;-62
2022/11/17 06:32:07;;;;;;;17.83;12.05;;;;;;;;;;10033227;28;20061;-62
2022/11/17 06:37:00;;;;;;;20.55;12.02;;;;;;;;;;10035271;28;20050;-62
2022/11/17 06:41:55;;;;;;;15.43;12.20;;;;;;;;;;10028487;28;20042;-63
2022/11/17 06:46:49;;;;;;;22.58;15.45;;;;;;;;;;10029953;28;20076;-63
2022/11/17 06:51:43;;;;;;;27.73;19.73;;;;;;;;;;10028721;28;20060;-62
2022/11/17 06:56:37;;;;;;;31.55;19.95;;;;;;;;;;10026986;28;20416;-62
2022/11/17 07:01:31;;;;;;;26.35;18.27;;;;;;;;;;10025721;28;20049;-63
2022/11/17 07:06:25;;;;;;;23.40;17.40;;;;;;;;;;10026390;28;20050;-63
2022/11/17 07:11:18;;;;;;;27.95;16.45;;;;;;;;;;10034874;28;20460;-66
2022/11/17 07:16:14;;;;;;;26.45;17.33;;;;;;;;;;10032735;28;20056;-62
2022/11/17 07:21:16;;;;;;;27.00;18.15;;;;;;;;;;10029700;28;20050;-62
2022/11/17 07:26:10;;;;;;;36.30;23.58;;;;;;;;;;10027264;28;20050;-62
2022/11/17 07:31:07;;;;;;;25.58;19.10;;;;;;;;;;10025650;28;20508;-62
2022/11/17 07:36:10;;;;;;;27.10;19.35;;;;;;;;;;10039167;28;20542;-62
2022/11/17 07:41:04;;;;;;;29.48;18.75;;;;;;;;;;10028155;28;20129;-62
2022/11/17 07:46:02;;;;;;;24.00;20.23;;;;;;;;;;10036268;28;20054;-62
2022/11/17 07:50:58;;;;;;;27.83;19.13;;;;;;;;;;10028755;28;20054;-61
2022/11/17 07:55:52;;;;;;;24.50;17.90;;;;;;;;;;10043282;28;20064;-62
2022/11/17 08:00:46;;;;;;;25.40;18.13;;;;;;;;;;10036762;28;20054;-62
2022/11/17 08:05:41;;;;;;;21.88;16.63;;;;;;;;;;10028736;28;20054;-62
2022/11/17 08:10:36;;;;;;;22.25;17.23;;;;;;;;;;10040032;28;20403;-62
2022/11/17 08:15:30;;;;;;;20.38;15.57;;;;;;;;;;10032772;28;20050;-62
2022/11/17 08:20:24;;;;;;;22.02;14.18;;;;;;;;;;10031133;28;20068;-63
2022/11/17 08:25:23;;;;;;;17.33;13.57;;;;;;;;;;10033417;28;20064;-63
2022/11/17 08:30:36;;;;;;;16.67;13.10;;;;;;;;;;10027636;28;20061;-62
2022/11/17 08:35:32;;;;;;;19.33;15.07;;;;;;;;;;10031549;28;20133;-63
2022/11/17 08:40:29;;;;;;;;;;;;;;;;;;10036362;28;20065;-62
2022/11/17 08:45:25;;;;;;;15.27;12.82;;;;;;;;;;10052718;28;19989;-63
2022/11/17 08:50:19;;;;;;;16.50;14.65;;;;;;;;;;10044018;28;20045;-63
2022/11/17 08:55:14;;;;;;;26.65;19.60;;;;;;;;;;10044449;28;20052;-63
2022/11/17 09:00:09;;;;;;;26.95;19.20;;;;;;;;;;10047292;28;20460;-62
2022/11/17 09:05:05;;;;;;;27.45;21.08;;;;;;;;;;10040881;28;20049;-63
2022/11/17 09:09:59;;;;;;;31.65;21.50;;;;;;;;;;10039559;28;20104;-63
2022/11/17 09:14:53;;;;;;;29.48;21.85;;;;;;;;;;10042938;28;20081;-63
2022/11/17 09:19:47;;;;;;;30.77;23.42;;;;;;;;;;10038496;28;20522;-63
2022/11/17 09:24:41;;;;;;;31.33;22.00;;;;;;;;;;10029340;28;20054;-63
2022/11/17 09:29:34;;;;;;;30.13;23.30;;;;;;;;;;10032113;28;20532;-63
2022/11/17 09:34:28;;;;;;;30.23;22.92;;;;;;;;;;10026529;28;20030;-63
2022/11/17 09:39:23;;;;;;;34.85;25.17;;;;;;;;;;10026080;28;20053;-63
2022/11/17 09:44:41;;;;;;;29.17;22.88;;;;;;;;;;10024970;28;20057;-62
2022/11/17 09:50:01;;;;;;;26.65;21.20;;;;;;;;;;10023271;28;20070;-61
2022/11/17 09:55:19;;;;;;;29.88;21.48;;;;;;;;;;10027452;28;20539;-63
2022/11/17 10:00:20;;;;;;;26.65;19.63;;;;;;;;;;10025425;28;20046;-62
2022/11/17 10:05:25;;;;;;;23.27;19.60;;;;;;;;;;10029944;28;20453;-62
2022/11/17 10:10:24;;;;;;;27.88;20.30;;;;;;;;;;10031036;28;20449;-61
2022/11/17 10:15:25;;;;;;;26.50;21.23;;;;;;;;;;10031257;28;20100;-62
2022/11/17 10:20:19;;;;;;;24.98;20.90;;;;;;;;;;10039006;28;20497;-62
2022/11/17 10:25:39;;;;;;;28.92;23.35;;;;;;;;;;10053947;28;20475;-63
2022/11/17 10:30:33;;;;;;;26.38;22.58;;;;;;;;;;10035198;28;20168;-63
2022/11/17 10:35:34;;;;;;;26.38;22.10;;;;;;;;;;10046237;28;20136;-63
2022/11/17 10:40:31;;;;;;;33.08;24.23;;;;;;;;;;10032387;28;20080;-63
2022/11/17 10:45:24;;;;;;;43.20;26.27;;;;;;;;;;10034976;28;20058;-62
2022/11/17 10:50:45;;;;;;;25.88;23.00;;;;;;;;;;10037914;28;20520;-62
2022/11/17 10:55:41;;;;;;;33.15;24.80;;;;;;;;;;10037419;28;20049;-62
2022/11/17 11:00:39;;;;;;;29.42;23.90;;;;;;;;;;10030173;28;20052;-62
2022/11/17 11:05:33;;;;;;;29.92;25.00;;;;;;;;;;10034130;28;20069;-62
2022/11/17 11:10:33;;;;;;;42.47;26.67;;;;;;;;;;10033834;28;20092;-62
2022/11/17 11:15:31;;;;;;;36.60;27.70;;;;;;;;;;10034455;28;20064;-62
2022/11/17 11:21:12;;;;;;;32.45;28.27;;;;;;;;;;10033772;28;20046;-61
2022/11/17 11:26:29;;;;;;;33.92;26.75;;;;;;;;;;9970708;28;20045;-62
2022/11/17 11:31:32;;;;;;;31.70;24.55;;;;;;;;;;10030356;28;20062;-61
2022/11/17 11:36:52;;;;;;;30.63;23.17;;;;;;;;;;10033518;28;20125;-61
2022/11/17 11:42:20;;;;;;;32.85;25.70;;;;;;;;;;10044357;28;20038;-61
2022/11/17 11:47:45;;;;;;;29.03;20.60;;;;;;;;;;10029565;28;20399;-63
2022/11/17 11:52:44;;;;;;;30.52;23.52;;;;;;;;;;10032388;28;20504;-64
2022/11/17 11:58:17;;;;;;;32.03;22.37;;;;;;;;;;10029589;28;20061;-62
2022/11/17 12:03:38;;;;;;;27.88;19.98;;;;;;;;;;10030544;28;20592;-64
2022/11/17 12:08:39;;;;;;;26.98;21.58;;;;;;;;;;10035674;28;20084;-65
2022/11/17 12:13:33;;;;;;;30.75;23.70;;;;;;;;;;10022817;28;20056;-61
2022/11/17 12:18:32;;;;;;;26.45;21.45;;;;;;;;;;10013795;28;20086;-60
2022/11/17 12:23:27;;;;;;;25.05;20.05;;;;;;;;;;10025933;28;20097;-60
2022/11/17 12:28:37;;;;;;;26.98;21.95;;;;;;;;;;10030538;28;20050;-60
2022/11/17 12:33:52;;;;;;;29.80;19.92;;;;;;;;;;10027117;28;20475;-63
2022/11/17 12:38:46;;;;;;;26.50;21.58;;;;;;;;;;10038701;28;20058;-63
2022/11/17 12:43:41;;;;;;;25.10;20.20;;;;;;;;;;10034107;28;20056;-61
2022/11/17 12:48:40;;;;;;;27.00;20.33;;;;;;;;;;10027183;28;20459;-61
2022/11/17 12:53:33;;;;;;;26.58;20.83;;;;;;;;;;10030840;28;20515;-64
2022/11/17 12:58:34;;;;;;;27.25;21.58;;;;;;;;;;10040037;28;20053;-63
2022/11/17 13:04:07;;;;;;;27.90;21.10;;;;;;;;;;10033121;28;20060;-63
2022/11/17 13:09:22;;;;;;;28.52;22.52;;;;;;;;;;10013872;28;20064;-61
2022/11/17 13:14:17;;;;;;;34.67;26.75;;;;;;;;;;10030864;28;20068;-61
2022/11/17 13:19:37;;;;;;;31.05;22.13;;;;;;;;;;10048189;28;20489;-61
2022/11/17 13:24:35;;;;;;;31.05;24.27;;;;;;;;;;10036592;28;20563;-62
2022/11/17 13:29:29;;;;;;;31.57;23.60;;;;;;;;;;10044942;28;20414;-62
2022/11/17 13:34:22;;;;;;;32.10;23.88;;;;;;;;;;10035621;28;20561;-62
2022/11/17 13:39:16;;;;;;;31.50;24.25;;;;;;;;;;10039047;28;20096;-62
2022/11/17 13:44:21;;;;;;;32.92;24.48;;;;;;;;;;10031939;28;20050;-62
2022/11/17 13:49:34;;;;;;;31.30;24.70;;;;;;;;;;10032635;28;20058;-61
2022/11/17 13:54:28;;;;;;;35.67;25.13;;;;;;;;;;10028920;28;20069;-61
2022/11/17 13:59:41;;;;;;;44.65;26.58;;;;;;;;;;10029965;28;20476;-62
2022/11/17 14:04:35;;;;;;;32.65;25.27;;;;;;;;;;10035550;28;20056;-62
2022/11/17 14:09:33;;;;;;;32.25;25.08;;;;;;;;;;10028734;28;20080;-62
2022/11/17 14:14:42;;;;;;;33.13;25.98;;;;;;;;;;10039701;28;20103;-63
2022/11/17 14:19:35;;;;;;;36.20;26.42;;;;;;;;;;10034787;28;20052;-62
2022/11/17 14:24:30;;;;;;;32.88;25.83;;;;;;;;;;10036890;28;20079;-62
2022/11/17 14:29:23;;;;;;;43.00;27.00;;;;;;;;;;10033669;28;20057;-62
2022/11/17 14:34:18;;;;;;;42.40;29.65;;;;;;;;;;10038817;28;20132;-62
2022/11/17 14:39:15;;;;;;;42.00;26.75;;;;;;;;;;10028887;28;20049;-62
2022/11/17 14:44:12;;;;;;;45.60;29.60;;;;;;;;;;10021094;28;20042;-62
2022/11/17 14:49:44;;;;;;;38.33;29.60;;;;;;;;;;10034211;28;20076;-62
2022/11/17 14:55:18;;;;;;;41.50;29.40;;;;;;;;;;10025786;28;20069;-62
2022/11/17 15:00:14;;;;;;;35.95;28.63;;;;;;;;;;10025383;28;20137;-62
2022/11/17 15:05:13;;;;;;;34.13;27.27;;;;;;;;;;10026593;28;20570;-62
2022/11/17 15:10:09;;;;;;;33.25;26.95;;;;;;;;;;10027000;28;20535;-62
2022/11/17 15:15:04;;;;;;;35.90;26.70;;;;;;;;;;10023971;28;20050;-62
2022/11/17 15:20:00;;;;;;;35.45;28.73;;;;;;;;;;10026428;28;20481;-62
2022/11/17 15:24:54;;;;;;;35.58;29.10;;;;;;;;;;10034857;28;20096;-62
2022/11/17 15:29:48;;;;;;;34.33;27.50;;;;;;;;;;10026735;28;20085;-63
2022/11/17 15:34:43;;;;;;;39.97;29.65;;;;;;;;;;10035255;28;20141;-62
2022/11/17 15:39:37;;;;;;;42.17;31.80;;;;;;;;;;10031430;28;20049;-62
2022/11/17 15:44:30;;;;;;;42.90;30.85;;;;;;;;;;10031318;28;20096;-62
2022/11/17 15:49:23;;;;;;;40.83;31.60;;;;;;;;;;10026068;28;20141;-62
2022/11/17 15:54:17;;;;;;;42.63;31.75;;;;;;;;;;10026041;28;20042;-62
2022/11/17 15:59:13;;;;;;;46.38;31.60;;;;;;;;;;10032895;28;20050;-62
2022/11/17 16:04:10;;;;;;;45.03;31.77;;;;;;;;;;10030608;28;20121;-62
2022/11/17 16:09:05;;;;;;;48.83;34.03;;;;;;;;;;10027026;28;20053;-62
2022/11/17 16:13:59;;;;;;;51.60;34.20;;;;;;;;;;10025086;28;20046;-62
2022/11/17 16:18:53;;;;;;;40.47;32.17;;;;;;;;;;10042955;28;20080;-62
2022/11/17 16:23:49;;;;;;;45.03;34.90;;;;;;;;;;10028836;28;20100;-63
2022/11/17 16:28:43;;;;;;;42.03;32.00;;;;;;;;;;10034240;28;20100;-63
2022/11/17 16:33:36;;;;;;;45.45;34.67;;;;;;;;;;10030314;28;20041;-63
2022/11/17 16:38:30;;;;;;;44.67;33.40;;;;;;;;;;10032657;28;20108;-65
2022/11/17 16:43:25;;;;;;;45.65;33.75;;;;;;;;;;10040757;28;20065;-63
2022/11/17 16:48:19;;;;;;;47.95;33.72;;;;;;;;;;10042583;28;20467;-62
2022/11/17 16:53:13;;;;;;;55.60;39.33;;;;;;;;;;10035582;28;20058;-63
2022/11/17 16:58:07;;;;;;;56.00;38.50;;;;;;;;;;10036458;28;20053;-63
2022/11/17 17:03:01;;;;;;;57.03;41.67;;;;;;;;;;10037264;28;20050;-63
2022/11/17 17:07:55;;;;;;;51.50;35.58;;;;;;;;;;10037460;28;20053;-63
2022/11/17 17:12:49;;;;;;;56.28;37.85;;;;;;;;;;10033357;28;20061;-63
2022/11/17 17:17:44;;;;;;;56.40;43.13;;;;;;;;;;10034607;28;20058;-63
2022/11/17 17:22:37;;;;;;;65.35;43.72;;;;;;;;;;10036373;28;20447;-63
2022/11/17 17:27:32;;;;;;;57.80;40.75;;;;;;;;;;10030697;28;20050;-62
2022/11/17 17:32:25;;;;;;;62.22;43.38;;;;;;;;;;10035124;28;20103;-62
2022/11/17 17:37:19;;;;;;;69.18;49.38;;;;;;;;;;10033507;28;20045;-62
2022/11/17 17:42:13;;;;;;;75.75;53.45;;;;;;;;;;10029864;28;20057;-61
2022/11/17 17:47:07;;;;;;;62.95;43.65;;;;;;;;;;10050283;28;20046;-61
2022/11/17 17:52:01;;;;;;;60.47;44.78;;;;;;;;;;10034405;28;20033;-62
2022/11/17 17:56:56;;;;;;;57.63;42.65;;;;;;;;;;10032518;28;20042;-62
2022/11/17 18:01:50;;;;;;;61.50;45.85;;;;;;;;;;10047750;28;20049;-63
2022/11/17 18:06:47;;;;;;;58.63;42.78;;;;;;;;;;10030718;28;20069;-61
2022/11/17 18:11:57;;;;;;;66.82;50.15;;;;;;;;;;10047991;28;20046;-61
2022/11/17 18:16:52;;;;;;;62.75;46.55;;;;;;;;;;10039245;28;20054;-61
2022/11/17 18:21:46;;;;;;;60.67;42.53;;;;;;;;;;10045357;28;20058;-63
2022/11/17 18:26:41;;;;;;;63.63;45.38;;;;;;;;;;10031369;28;20080;-61
2022/11/17 18:31:36;;;;;;;58.75;43.50;;;;;;;;;;10035647;28;20057;-63
2022/11/17 18:36:31;;;;;;;55.75;41.05;;;;;;;;;;10029075;28;20493;-63
2022/11/17 18:41:25;;;;;;;71.75;49.35;;;;;;;;;;10034776;28;20060;-61
2022/11/17 18:46:21;;;;;;;55.25;39.88;;;;;;;;;;10040182;28;20460;-63
2022/11/17 18:51:16;;;;;;;56.38;39.75;;;;;;;;;;10035021;28;20052;-63
2022/11/17 18:56:13;;;;;;;55.95;38.38;;;;;;;;;;10030009;28;20120;-62
2022/11/17 19:01:37;;;;;;;55.30;39.72;;;;;;;;;;10028482;28;20069;-63
2022/11/17 19:06:31;;;;;;;51.35;35.33;;;;;;;;;;10028372;28;20073;-62
2022/11/17 19:11:27;;;;;;;48.20;34.92;;;;;;;;;;10027206;28;20052;-63
2022/11/17 19:16:23;;;;;;;49.63;33.80;;;;;;;;;;10026090;28;20049;-61
2022/11/17 19:21:38;;;;;;;45.88;32.28;;;;;;;;;;10030553;28;20416;-61
2022/11/17 19:26:34;;;;;;;46.30;33.75;;;;;;;;;;10011030;28;20049;-61
2022/11/17 19:31:29;;;;;;;52.42;35.65;;;;;;;;;;10028192;28;20116;-62
2022/11/17 19:36:28;;;;;;;51.85;35.03;;;;;;;;;;10046206;28;20057;-63
2022/11/17 19:41:43;;;;;;;53.70;34.60;;;;;;;;;;10030309;28;20058;-62
2022/11/17 19:46:38;;;;;;;46.33;33.92;;;;;;;;;;10031985;28;20073;-61
2022/11/17 19:51:37;;;;;;;48.58;33.35;;;;;;;;;;10029604;28;20050;-62
2022/11/17 19:56:34;;;;;;;49.22;33.80;;;;;;;;;;10038558;28;20074;-62
2022/11/17 20:01:31;;;;;;;53.22;35.97;;;;;;;;;;10027923;28;20116;-62
2022/11/17 20:06:27;;;;;;;47.60;31.98;;;;;;;;;;10038263;28;20060;-63
2022/11/17 20:11:24;;;;;;;47.63;37.00;;;;;;;;;;10029750;28;20087;-64
2022/11/17 20:16:20;;;;;;;46.15;32.88;;;;;;;;;;10033936;28;20112;-65
2022/11/17 20:21:14;;;;;;;45.55;31.05;;;;;;;;;;10033260;28;20066;-65
2022/11/17 20:26:15;;;;;;;57.42;35.03;;;;;;;;;;10033607;28;20058;-66
2022/11/17 20:31:18;;;;;;;53.85;34.58;;;;;;;;;;10029702;28;20511;-64
2022/11/17 20:36:17;;;;;;;58.35;36.70;;;;;;;;;;10031449;28;20775;-64
2022/11/17 20:41:12;;;;;;;56.95;35.95;;;;;;;;;;10030699;28;20069;-64
2022/11/17 20:46:05;;;;;;;64.22;37.83;;;;;;;;;;10032102;28;20046;-63
2022/11/17 20:51:05;;;;;;;62.35;37.17;;;;;;;;;;10027867;28;20058;-63
2022/11/17 20:56:00;;;;;;;61.03;37.58;;;;;;;;;;10027879;28;20489;-64
2022/11/17 21:00:54;;;;;;;60.67;38.17;;;;;;;;;;10037008;28;20054;-65
2022/11/17 21:05:56;;;;;;;75.03;46.78;;;;;;;;;;10033598;28;20145;-62
2022/11/17 21:10:58;;;;;;;56.88;35.85;;;;;;;;;;10033548;28;20057;-62
2022/11/17 21:16:22;;;;;;;67.05;38.22;;;;;;;;;;10032049;28;20062;-62
2022/11/17 21:21:54;;;;;;;58.22;38.25;;;;;;;;;;10034429;28;20501;-63
2022/11/17 21:26:49;;;;;;;63.30;40.92;;;;;;;;;;10042571;28;20034;-63
2022/11/17 21:32:23;;;;;;;66.30;38.30;;;;;;;;;;10040335;28;20064;-63
2022/11/17 21:37:23;;;;;;;65.60;37.53;;;;;;;;;;10046228;28;20058;-63
2022/11/17 21:42:19;;;;;;;64.40;37.42;;;;;;;;;;10040018;28;20054;-63
2022/11/17 21:47:13;;;;;;;66.32;36.67;;;;;;;;;;10041907;28;20460;-63
2022/11/17 21:52:08;;;;;;;67.10;37.55;;;;;;;;;;10037719;28;20448;-62
2022/11/17 21:57:01;;;;;;;71.55;42.33;;;;;;;;;;10031806;28;20053;-62
2022/11/17 22:01:56;;;;;;;63.97;40.65;;;;;;;;;;10038557;28;20064;-63
2022/11/17 22:06:49;;;;;;;69.70;38.72;;;;;;;;;;10036850;28;20054;-62
2022/11/17 22:11:43;;;;;;;72.25;41.08;;;;;;;;;;10030915;28;20120;-65
2022/11/17 22:16:42;;;;;;;65.95;39.33;;;;;;;;;;10030322;28;20057;-62
2022/11/17 22:21:37;;;;;;;68.70;40.57;;;;;;;;;;10036039;28;20041;-63
2022/11/17 22:26:31;;;;;;;68.25;37.30;;;;;;;;;;10036651;28;20145;-63
2022/11/17 22:31:25;;;;;;;61.13;37.42;;;;;;;;;;10032176;28;20054;-62
2022/11/17 22:36:19;;;;;;;65.95;39.67;;;;;;;;;;10042265;28;20077;-62
2022/11/17 22:41:15;;;;;;;62.17;37.78;;;;;;;;;;10033873;28;20074;-62
2022/11/17 22:46:10;;;;;;;62.58;37.63;;;;;;;;;;10030277;28;20397;-62
2022/11/17 22:51:07;;;;;;;55.75;35.42;;;;;;;;;;10030342;28;20045;-62
2022/11/17 22:56:06;;;;;;;64.00;37.78;;;;;;;;;;10028588;28;20061;-62
2022/11/17 23:01:05;;;;;;;63.83;37.97;;;;;;;;;;10029420;28;20459;-62
2022/11/17 23:06:23;;;;;;;71.93;38.35;;;;;;;;;;10037827;28;20511;-62
2022/11/17 23:11:17;;;;;;;61.55;35.95;;;;;;;;;;10028058;28;20058;-62
2022/11/17 23:16:31;;;;;;;57.53;36.45;;;;;;;;;;10030385;28;20089;-62
2022/11/17 23:21:26;;;;;;;61.05;37.60;;;;;;;;;;10027764;28;20508;-62
2022/11/17 23:26:19;;;;;;;56.97;34.45;;;;;;;;;;10030138;28;20504;-61
2022/11/17 23:31:15;;;;;;;64.45;35.50;;;;;;;;;;10028226;28;20057;-62
2022/11/17 23:36:31;;;;;;;63.20;38.38;;;;;;;;;;10038965;28;20128;-62
2022/11/17 23:41:26;;;;;;;61.63;36.83;;;;;;;;;;10031061;28;20053;-61
2022/11/17 23:46:22;;;;;;;59.47;35.78;;;;;;;;;;10023159;28;20066;-61
2022/11/17 23:51:18;;;;;;;65.72;37.33;;;;;;;;;;10028847;28;20655;-61
2022/11/17 23:56:14;;;;;;;65.68;38.60;;;;;;;;;;10026803;28;20459;-61
